Panorama — SVAG5 — position and weather

sailwx.info

Track history (hours):
 
Tides and Currents Weather Stations Pressure Air Temp Water Temp Dewpoint Dewpoint Depression Visibility Wind Speed Wind Dir Waves Ship Positions

Panorama

Last reported at 2017-Sep-18 05:47 UTC. Time now 2017-Sep-21 12:35 UTC.
Position N 38°02' E 024°04'.

Length 100 m; draft 3.6 m.

Type: Ship. MMSI: 241133000.

Date/timePositionNaut miles runAvg speedWind from/ knotsBaromVisibWave heightAir tempDewpointWater temp
2017-Sep-18 05:47N 38°02' E 024°04'2 3.4
2017-Sep-18 05:04N 38°01' E 024°01'113.7
2017-Sep-18 05:00N 38°01' E 024°03'1 0.1
2017-Sep-17 19:04N 38°02' E 024°04'1 2.6
2017-Sep-17 18:32N 38°01' E 024°02'013.8
2017-Sep-17 18:30N 38°01' E 024°03'1114.0
2017-Sep-17 17:42N 38°02' E 024°17'12 7.5
2017-Sep-17 16:04N 38°01' E 024°01'0 0.6
2017-Sep-17 15:38N 38°01' E 024°02'214.7
2017-Sep-17 15:29N 38°02' E 024°04'0 0.0
2017-Sep-17 13:03N 38°02' E 024°04'1 2.0
2017-Sep-17 12:27N 38°01' E 024°03'714.1
2017-Sep-17 11:59N 38°02' E 024°11'8 1.3
2017-Sep-17 05:36N 38°01' E 024°01'113.6
2017-Sep-17 05:30N 38°01' E 024°02'714.3
2017-Sep-17 05:00N 38°02' E 024°12'6 0.5
2017-Sep-16 16:14N 38°02' E 024°04'2 2.4
2017-Sep-16 15:31N 38°01' E 024°02'014.0
2017-Sep-16 15:30N 38°01' E 024°02'3 1.3
2017-Sep-16 13:20N 38°02' E 024°06'3 3.3
2017-Sep-16 12:29N 38°01' E 024°02'0 0.1
2017-Sep-16 07:54N 38°01' E 024°02'613.9
2017-Sep-16 07:30N 38°02' E 024°09'5 2.1
2017-Sep-16 05:01N 38°01' E 024°02'014.4
2017-Sep-16 04:59N 38°01' E 024°03'714.3
2017-Sep-16 04:29N 38°02' E 024°12'9 0.8
2017-Sep-15 17:26N 38°01' E 024°01'614.0
2017-Sep-15 16:59N 38°02' E 024°09'5 1.8
2017-Sep-15 14:20N 38°01' E 024°02'514.4
2017-Sep-15 14:00N 38°02' E 024°08'4 2.0
2017-Sep-15 12:14N 38°02' E 024°04'1 0.3
2017-Sep-15 07:31N 38°01' E 024°02'013.9
2017-Sep-15 07:30N 38°01' E 024°02'814.4
2017-Sep-15 06:57N 38°02' E 024°13'5 0.3
2017-Sep-14 11:26N 38°03' E 024°19'2 4.0
2017-Sep-14 10:59N 38°03' E 024°17'  
2017-Sep-11 05:55N 38°02' E 024°07'5 5.7
2017-Sep-11 04:59N 38°01' E 024°01'815.2
2017-Sep-11 04:27N 38°02' E 024°11'8 0.8
2017-Sep-10 18:51N 38°01' E 024°01'2 4.1
2017-Sep-10 18:29N 38°01' E 024°03'813.9
2017-Sep-10 17:55N 38°02' E 024°13'7 4.5
2017-Sep-10 16:21N 38°02' E 024°04'2 3.9
2017-Sep-10 15:50N 38°01' E 024°01'515.6
2017-Sep-10 15:31N 38°02' E 024°08'4 1.3
2017-Sep-10 12:30N 38°01' E 024°03'714.0
2017-Sep-10 12:00N 38°02' E 024°11'6 1.0
2017-Sep-10 06:13N 38°02' E 024°04'2 2.7
2017-Sep-10 05:33N 38°01' E 024°02'114.3
2017-Sep-10 05:30N 38°01' E 024°02'1 0.1
2017-Sep-09 15:33N 38°01' E 024°01'014.1
2017-Sep-09 15:30N 38°02' E 024°02'0 0.1
2017-Sep-09 12:33N 38°01' E 024°01'114.2
2017-Sep-09 12:30N 38°01' E 024°02'914.0
2017-Sep-09 11:54N 38°02' E 024°13'9 2.2
2017-Sep-09 07:52N 38°01' E 024°02'614.1
2017-Sep-09 07:28N 38°02' E 024°09'714.2
2017-Sep-09 07:00N 38°02' E 024°17'11 8.2
2017-Sep-09 05:42N 38°02' E 024°04'2 3.8
2017-Sep-09 05:07N 38°01' E 024°01'1 9.4
2017-Sep-09 05:00N 38°01' E 024°02'1 0.1
2017-Sep-08 18:01N 38°02' E 024°04'014.2
2017-Sep-08 18:00N 38°02' E 024°03'2 3.3
2017-Sep-08 17:30N 38°01' E 024°01'1 0.2
2017-Sep-08 14:23N 38°01' E 024°02'614.1
2017-Sep-08 13:59N 38°02' E 024°09'1 0.7
2017-Sep-08 12:26N 38°02' E 024°08'4 0.9
2017-Sep-08 07:30N 38°01' E 024°02'1214.0
2017-Sep-08 06:38N 38°02' E 024°17'  
Track history (hours):
 
Tides and Currents Weather Stations Pressure Air Temp Water Temp Dewpoint Dewpoint Depression Visibility Wind Speed Wind Dir Waves Ship Positions

Panorama

Last reported at 2017-Sep-18 05:47 UTC. Time now 2017-Sep-21 12:35 UTC.
Position N 38°02' E 024°04'.

Length 100 m; draft 3.6 m.

Type: Ship. MMSI: 241133000.

Date/timePositionNaut miles runAvg speedWind from/ knotsBaromVisibWave heightAir tempDewpointWater temp
2017-Sep-18 05:47N 38°02' E 024°04'2 3.4
2017-Sep-18 05:04N 38°01' E 024°01'113.7
2017-Sep-18 05:00N 38°01' E 024°03'1 0.1
2017-Sep-17 19:04N 38°02' E 024°04'1 2.6
2017-Sep-17 18:32N 38°01' E 024°02'013.8
2017-Sep-17 18:30N 38°01' E 024°03'1114.0
2017-Sep-17 17:42N 38°02' E 024°17'12 7.5
2017-Sep-17 16:04N 38°01' E 024°01'0 0.6
2017-Sep-17 15:38N 38°01' E 024°02'214.7
2017-Sep-17 15:29N 38°02' E 024°04'0 0.0
2017-Sep-17 13:03N 38°02' E 024°04'1 2.0
2017-Sep-17 12:27N 38°01' E 024°03'714.1
2017-Sep-17 11:59N 38°02' E 024°11'8 1.3
2017-Sep-17 05:36N 38°01' E 024°01'113.6
2017-Sep-17 05:30N 38°01' E 024°02'714.3
2017-Sep-17 05:00N 38°02' E 024°12'6 0.5
2017-Sep-16 16:14N 38°02' E 024°04'2 2.4
2017-Sep-16 15:31N 38°01' E 024°02'014.0
2017-Sep-16 15:30N 38°01' E 024°02'3 1.3
2017-Sep-16 13:20N 38°02' E 024°06'3 3.3
2017-Sep-16 12:29N 38°01' E 024°02'0 0.1
2017-Sep-16 07:54N 38°01' E 024°02'613.9
2017-Sep-16 07:30N 38°02' E 024°09'5 2.1
2017-Sep-16 05:01N 38°01' E 024°02'014.4
2017-Sep-16 04:59N 38°01' E 024°03'714.3
2017-Sep-16 04:29N 38°02' E 024°12'9 0.8
2017-Sep-15 17:26N 38°01' E 024°01'614.0
2017-Sep-15 16:59N 38°02' E 024°09'5 1.8
2017-Sep-15 14:20N 38°01' E 024°02'514.4
2017-Sep-15 14:00N 38°02' E 024°08'4 2.0
2017-Sep-15 12:14N 38°02' E 024°04'1 0.3
2017-Sep-15 07:31N 38°01' E 024°02'013.9
2017-Sep-15 07:30N 38°01' E 024°02'814.4
2017-Sep-15 06:57N 38°02' E 024°13'5 0.3
2017-Sep-14 11:26N 38°03' E 024°19'2 4.0
2017-Sep-14 10:59N 38°03' E 024°17'  
2017-Sep-11 05:55N 38°02' E 024°07'5 5.7
2017-Sep-11 04:59N 38°01' E 024°01'815.2
2017-Sep-11 04:27N 38°02' E 024°11'8 0.8
2017-Sep-10 18:51N 38°01' E 024°01'2 4.1
2017-Sep-10 18:29N 38°01' E 024°03'813.9
2017-Sep-10 17:55N 38°02' E 024°13'7 4.5
2017-Sep-10 16:21N 38°02' E 024°04'2 3.9
2017-Sep-10 15:50N 38°01' E 024°01'515.6
2017-Sep-10 15:31N 38°02' E 024°08'4 1.3
2017-Sep-10 12:30N 38°01' E 024°03'714.0
2017-Sep-10 12:00N 38°02' E 024°11'6 1.0
2017-Sep-10 06:13N 38°02' E 024°04'2 2.7
2017-Sep-10 05:33N 38°01' E 024°02'114.3
2017-Sep-10 05:30N 38°01' E 024°02'1 0.1
2017-Sep-09 15:33N 38°01' E 024°01'014.1
2017-Sep-09 15:30N 38°02' E 024°02'0 0.1
2017-Sep-09 12:33N 38°01' E 024°01'114.2
2017-Sep-09 12:30N 38°01' E 024°02'914.0
2017-Sep-09 11:54N 38°02' E 024°13'9 2.2
2017-Sep-09 07:52N 38°01' E 024°02'614.1
2017-Sep-09 07:28N 38°02' E 024°09'714.2
2017-Sep-09 07:00N 38°02' E 024°17'11 8.2
2017-Sep-09 05:42N 38°02' E 024°04'2 3.8
2017-Sep-09 05:07N 38°01' E 024°01'1 9.4
2017-Sep-09 05:00N 38°01' E 024°02'1 0.1
2017-Sep-08 18:01N 38°02' E 024°04'014.2
2017-Sep-08 18:00N 38°02' E 024°03'2 3.3
2017-Sep-08 17:30N 38°01' E 024°01'1 0.2
2017-Sep-08 14:23N 38°01' E 024°02'614.1
2017-Sep-08 13:59N 38°02' E 024°09'1 0.7
2017-Sep-08 12:26N 38°02' E 024°08'4 0.9
2017-Sep-08 07:30N 38°01' E 024°02'1214.0
2017-Sep-08 06:38N 38°02' E 024°17'  

Dump ship's entire track history